sensor_id;sensor_type;location;lat;lon;timestamp;pressure;altitude;pressure_sealevel;temperature;humidity
69751;BME280;57335;52.288;6.056;2023-08-20T00:02:08;102045.38;;;16.52;100.00
69751;BME280;57335;52.288;6.056;2023-08-20T00:04:36;102047.41;;;16.50;100.00
69751;BME280;57335;52.288;6.056;2023-08-20T00:07:03;102049.25;;;16.50;100.00
69751;BME280;57335;52.288;6.056;2023-08-20T00:09:29;102049.88;;;16.45;100.00
69751;BME280;57335;52.288;6.056;2023-08-20T00:11:56;102046.25;;;16.40;100.00
69751;BME280;57335;52.288;6.056;2023-08-20T00:14:52;102052.81;;;16.37;100.00
69751;BME280;57335;52.288;6.056;2023-08-20T00:17:19;102053.06;;;16.29;100.00
69751;BME280;57335;52.288;6.056;2023-08-20T00:19:46;102049.44;;;16.23;100.00
69751;BME280;57335;52.288;6.056;2023-08-20T00:22:12;102058.22;;;16.24;100.00
69751;BME280;57335;52.288;6.056;2023-08-20T00:24:39;102051.72;;;16.20;100.00
69751;BME280;57335;52.288;6.056;2023-08-20T00:27:06;102057.00;;;16.20;100.00
69751;BME280;57335;52.288;6.056;2023-08-20T00:29:32;102050.47;;;16.22;100.00
69751;BME280;57335;52.288;6.056;2023-08-20T00:31:58;102058.81;;;16.19;100.00
69751;BME280;57335;52.288;6.056;2023-08-20T00:34:25;102061.25;;;16.21;100.00
69751;BME280;57335;52.288;6.056;2023-08-20T00:36:51;102065.53;;;16.22;100.00
69751;BME280;57335;52.288;6.056;2023-08-20T00:39:17;102065.97;;;16.19;100.00
69751;BME280;57335;52.288;6.056;2023-08-20T00:41:44;102073.09;;;16.11;100.00
69751;BME280;57335;52.288;6.056;2023-08-20T00:44:10;102079.84;;;16.07;100.00
69751;BME280;57335;52.288;6.056;2023-08-20T00:46:37;102088.38;;;16.09;100.00
69751;BME280;57335;52.288;6.056;2023-08-20T00:49:03;102076.59;;;16.05;100.00
69751;BME280;57335;52.288;6.056;2023-08-20T00:51:33;102085.53;;;16.11;100.00
69751;BME280;57335;52.288;6.056;2023-08-20T00:54:01;102069.72;;;16.04;100.00
69751;BME280;57335;52.288;6.056;2023-08-20T00:56:28;102071.75;;;16.02;100.00
69751;BME280;57335;52.288;6.056;2023-08-20T00:58:55;102075.41;;;16.01;100.00
69751;BME280;57335;52.288;6.056;2023-08-20T01:01:22;102080.28;;;16.04;100.00
69751;BME280;57335;52.288;6.056;2023-08-20T01:03:48;102074.19;;;16.04;100.00
69751;BME280;57335;52.288;6.056;2023-08-20T01:09:03;102081.47;;;16.08;100.00
69751;BME280;57335;52.288;6.056;2023-08-20T01:11:37;102080.50;;;16.03;100.00
69751;BME280;57335;52.288;6.056;2023-08-20T01:14:16;102085.97;;;16.01;100.00
69751;BME280;57335;52.288;6.056;2023-08-20T01:16:43;102078.31;;;15.93;100.00
69751;BME280;57335;52.288;6.056;2023-08-20T01:19:15;102092.91;;;16.02;100.00
69751;BME280;57335;52.288;6.056;2023-08-20T01:21:56;102100.03;;;16.02;100.00
69751;BME280;57335;52.288;6.056;2023-08-20T01:24:44;102091.31;;;15.94;100.00
69751;BME280;57335;52.288;6.056;2023-08-20T01:30:09;102087.28;;;15.92;100.00
69751;BME280;57335;52.288;6.056;2023-08-20T01:32:37;102097.59;;;15.93;100.00
69751;BME280;57335;52.288;6.056;2023-08-20T01:35:05;102115.50;;;15.98;100.00
69751;BME280;57335;52.288;6.056;2023-08-20T01:37:32;102121.59;;;15.99;100.00
69751;BME280;57335;52.288;6.056;2023-08-20T01:39:59;102114.06;;;16.02;100.00
69751;BME280;57335;52.288;6.056;2023-08-20T01:42:25;102121.16;;;16.08;100.00
69751;BME280;57335;52.288;6.056;2023-08-20T01:44:51;102130.25;;;16.19;100.00
69751;BME280;57335;52.288;6.056;2023-08-20T01:47:18;102132.03;;;16.25;100.00
69751;BME280;57335;52.288;6.056;2023-08-20T01:49:44;102128.97;;;16.28;100.00
69751;BME280;57335;52.288;6.056;2023-08-20T01:52:10;102130.38;;;16.31;100.00
69751;BME280;57335;52.288;6.056;2023-08-20T01:54:37;102125.94;;;16.25;100.00
69751;BME280;57335;52.288;6.056;2023-08-20T01:57:03;102127.59;;;16.26;100.00
69751;BME280;57335;52.288;6.056;2023-08-20T01:59:30;102139.59;;;16.22;100.00
69751;BME280;57335;52.288;6.056;2023-08-20T02:01:56;102148.16;;;16.17;100.00
69751;BME280;57335;52.288;6.056;2023-08-20T02:04:22;102144.50;;;16.18;100.00
69751;BME280;57335;52.288;6.056;2023-08-20T02:06:49;102153.28;;;16.12;100.00
69751;BME280;57335;52.288;6.056;2023-08-20T02:09:15;102156.91;;;16.18;100.00
69751;BME280;57335;52.288;6.056;2023-08-20T02:11:41;102154.25;;;16.18;100.00
69751;BME280;57335;52.288;6.056;2023-08-20T02:14:08;102136.38;;;16.13;100.00
69751;BME280;57335;52.288;6.056;2023-08-20T02:16:34;102148.34;;;16.15;100.00
69751;BME280;57335;52.288;6.056;2023-08-20T02:19:01;102150.00;;;16.17;100.00
69751;BME280;57335;52.288;6.056;2023-08-20T02:21:27;102138.22;;;16.12;100.00
69751;BME280;57335;52.288;6.056;2023-08-20T02:23:53;102142.47;;;16.13;100.00
69751;BME280;57335;52.288;6.056;2023-08-20T02:26:20;102143.31;;;16.07;100.00
69751;BME280;57335;52.288;6.056;2023-08-20T02:28:46;102145.34;;;16.05;100.00
69751;BME280;57335;52.288;6.056;2023-08-20T02:31:13;102142.56;;;16.00;100.00
69751;BME280;57335;52.288;6.056;2023-08-20T02:33:39;102144.16;;;16.01;100.00
69751;BME280;57335;52.288;6.056;2023-08-20T02:36:05;102143.34;;;16.01;100.00
69751;BME280;57335;52.288;6.056;2023-08-20T02:38:32;102133.63;;;15.94;100.00
69751;BME280;57335;52.288;6.056;2023-08-20T02:40:58;102145.81;;;15.95;100.00
69751;BME280;57335;52.288;6.056;2023-08-20T02:43:25;102140.97;;;15.86;100.00
69751;BME280;57335;52.288;6.056;2023-08-20T02:45:51;102130.81;;;15.83;100.00
69751;BME280;57335;52.288;6.056;2023-08-20T02:48:17;102131.44;;;15.78;100.00
69751;BME280;57335;52.288;6.056;2023-08-20T02:50:44;102147.91;;;15.80;100.00
69751;BME280;57335;52.288;6.056;2023-08-20T02:53:10;102143.47;;;15.74;100.00
69751;BME280;57335;52.288;6.056;2023-08-20T02:55:37;102138.97;;;15.74;100.00
69751;BME280;57335;52.288;6.056;2023-08-20T02:58:03;102134.50;;;15.68;100.00
69751;BME280;57335;52.288;6.056;2023-08-20T03:00:30;102123.13;;;15.61;100.00
69751;BME280;57335;52.288;6.056;2023-08-20T03:02:57;102127.41;;;15.62;100.00
69751;BME280;57335;52.288;6.056;2023-08-20T03:05:23;102120.72;;;15.53;100.00
69751;BME280;57335;52.288;6.056;2023-08-20T03:07:49;102111.41;;;15.44;100.00
69751;BME280;57335;52.288;6.056;2023-08-20T03:10:16;102113.03;;;15.38;100.00
69751;BME280;57335;52.288;6.056;2023-08-20T03:12:42;102113.03;;;15.31;100.00
69751;BME280;57335;52.288;6.056;2023-08-20T03:15:09;102096.00;;;15.21;100.00
69751;BME280;57335;52.288;6.056;2023-08-20T03:17:35;102100.06;;;15.16;100.00
69751;BME280;57335;52.288;6.056;2023-08-20T03:20:03;102106.16;;;15.17;100.00
69751;BME280;57335;52.288;6.056;2023-08-20T03:22:29;102104.31;;;15.11;100.00
69751;BME280;57335;52.288;6.056;2023-08-20T03:24:56;102102.91;;;15.08;100.00
69751;BME280;57335;52.288;6.056;2023-08-20T03:27:22;102106.16;;;15.10;100.00
69751;BME280;57335;52.288;6.056;2023-08-20T03:29:48;102103.53;;;15.10;100.00
69751;BME280;57335;52.288;6.056;2023-08-20T03:32:15;102097.44;;;15.03;100.00
69751;BME280;57335;52.288;6.056;2023-08-20T03:34:42;102100.69;;;14.99;100.00
69751;BME280;57335;52.288;6.056;2023-08-20T03:37:08;102105.97;;;14.99;100.00
69751;BME280;57335;52.288;6.056;2023-08-20T03:39:34;102098.88;;;14.92;100.00
69751;BME280;57335;52.288;6.056;2023-08-20T03:42:01;102114.91;;;14.98;100.00
69751;BME280;57335;52.288;6.056;2023-08-20T03:44:27;102119.59;;;14.95;100.00
69751;BME280;57335;52.288;6.056;2023-08-20T03:46:53;102122.63;;;14.92;100.00
69751;BME280;57335;52.288;6.056;2023-08-20T03:49:20;102125.28;;;14.86;100.00
69751;BME280;57335;52.288;6.056;2023-08-20T03:51:46;102135.00;;;14.85;100.00
69751;BME280;57335;52.288;6.056;2023-08-20T03:54:13;102130.53;;;14.79;100.00
69751;BME280;57335;52.288;6.056;2023-08-20T03:56:39;102138.25;;;14.81;100.00
69751;BME280;57335;52.288;6.056;2023-08-20T03:59:06;102136.00;;;14.71;100.00
69751;BME280;57335;52.288;6.056;2023-08-20T04:01:32;102146.78;;;14.76;100.00
69751;BME280;57335;52.288;6.056;2023-08-20T04:03:59;102136.00;;;14.71;100.00
69751;BME280;57335;52.288;6.056;2023-08-20T04:06:26;102134.78;;;14.67;100.00
69751;BME280;57335;52.288;6.056;2023-08-20T04:08:52;102143.53;;;14.67;100.00
69751;BME280;57335;52.288;6.056;2023-08-20T04:11:19;102149.00;;;14.66;100.00
69751;BME280;57335;52.288;6.056;2023-08-20T04:13:45;102149.81;;;14.66;100.00
69751;BME280;57335;52.288;6.056;2023-08-20T04:16:12;102143.47;;;14.54;100.00
69751;BME280;57335;52.288;6.056;2023-08-20T04:18:38;102157.31;;;14.56;100.00
69751;BME280;57335;52.288;6.056;2023-08-20T04:21:05;102156.25;;;14.50;100.00
69751;BME280;57335;52.288;6.056;2023-08-20T04:23:32;102154.41;;;14.44;100.00
69751;BME280;57335;52.288;6.056;2023-08-20T04:25:59;102163.97;;;14.45;100.00
69751;BME280;57335;52.288;6.056;2023-08-20T04:28:25;102154.78;;;14.41;100.00
69751;BME280;57335;52.288;6.056;2023-08-20T04:30:52;102162.72;;;14.48;100.00
69751;BME280;57335;52.288;6.056;2023-08-20T04:33:19;102153.41;;;14.45;100.00
69751;BME280;57335;52.288;6.056;2023-08-20T04:35:45;102149.31;;;14.43;100.00
69751;BME280;57335;52.288;6.056;2023-08-20T04:38:12;102161.09;;;14.47;100.00
69751;BME280;57335;52.288;6.056;2023-08-20T04:40:38;102153.19;;;14.40;100.00
69751;BME280;57335;52.288;6.056;2023-08-20T04:43:05;102156.44;;;14.42;100.00
69751;BME280;57335;52.288;6.056;2023-08-20T04:45:31;102158.03;;;14.43;100.00
69751;BME280;57335;52.288;6.056;2023-08-20T04:47:59;102167.41;;;14.46;100.00
69751;BME280;57335;52.288;6.056;2023-08-20T04:50:25;102172.63;;;14.39;100.00
69751;BME280;57335;52.288;6.056;2023-08-20T04:52:52;102169.38;;;14.37;100.00
69751;BME280;57335;52.288;6.056;2023-08-20T04:55:18;102176.50;;;14.43;100.00
69751;BME280;57335;52.288;6.056;2023-08-20T04:57:45;102172.66;;;14.46;100.00
69751;BME280;57335;52.288;6.056;2023-08-20T05:00:11;102162.94;;;14.46;100.00
69751;BME280;57335;52.288;6.056;2023-08-20T05:02:38;102176.72;;;14.48;100.00
69751;BME280;57335;52.288;6.056;2023-08-20T05:05:05;102178.75;;;14.53;100.00
69751;BME280;57335;52.288;6.056;2023-08-20T05:07:32;102185.94;;;14.66;100.00
69751;BME280;57335;52.288;6.056;2023-08-20T05:09:58;102184.34;;;14.71;100.00
69751;BME280;57335;52.288;6.056;2023-08-20T05:12:25;102193.06;;;14.79;100.00
69751;BME280;57335;52.288;6.056;2023-08-20T05:14:51;102173.97;;;14.76;100.00
69751;BME280;57335;52.288;6.056;2023-08-20T05:17:17;102178.47;;;14.89;100.00
69751;BME280;57335;52.288;6.056;2023-08-20T05:19:44;102182.72;;;14.97;100.00
69751;BME280;57335;52.288;6.056;2023-08-20T05:22:10;102185.38;;;15.04;100.00
69751;BME280;57335;52.288;6.056;2023-08-20T05:24:37;102178.88;;;15.13;100.00
69751;BME280;57335;52.288;6.056;2023-08-20T05:29:32;102187.38;;;15.48;100.00
69751;BME280;57335;52.288;6.056;2023-08-20T05:31:58;102184.91;;;15.67;100.00
69751;BME280;57335;52.288;6.056;2023-08-20T05:34:25;102190.94;;;16.01;100.00
69751;BME280;57335;52.288;6.056;2023-08-20T05:36:51;102192.91;;;16.64;100.00
69751;BME280;57335;52.288;6.056;2023-08-20T05:39:18;102199.03;;;17.40;100.00
69751;BME280;57335;52.288;6.056;2023-08-20T05:41:44;102192.38;;;18.29;100.00
69751;BME280;57335;52.288;6.056;2023-08-20T05:44:11;102202.00;;;19.26;100.00
69751;BME280;57335;52.288;6.056;2023-08-20T05:46:37;102203.13;;;20.18;100.00
69751;BME280;57335;52.288;6.056;2023-08-20T05:49:04;102198.78;;;21.03;100.00
69751;BME280;57335;52.288;6.056;2023-08-20T05:51:30;102207.19;;;21.90;96.78
69751;BME280;57335;52.288;6.056;2023-08-20T05:53:56;102196.47;;;22.61;91.88
69751;BME280;57335;52.288;6.056;2023-08-20T05:56:23;102207.16;;;23.31;88.56
69751;BME280;57335;52.288;6.056;2023-08-20T05:58:49;102209.38;;;23.97;84.18
69751;BME280;57335;52.288;6.056;2023-08-20T06:01:15;102204.19;;;24.64;81.07
69751;BME280;57335;52.288;6.056;2023-08-20T06:03:42;102206.53;;;25.32;77.62
69751;BME280;57335;52.288;6.056;2023-08-20T06:06:08;102196.38;;;25.89;74.38
69751;BME280;57335;52.288;6.056;2023-08-20T06:08:35;102203.00;;;26.52;71.56
69751;BME280;57335;52.288;6.056;2023-08-20T06:11:01;102184.81;;;27.02;69.57
69751;BME280;57335;52.288;6.056;2023-08-20T06:13:27;102194.41;;;27.61;67.04
69751;BME280;57335;52.288;6.056;2023-08-20T06:15:54;102193.75;;;28.13;64.47
69751;BME280;57335;52.288;6.056;2023-08-20T06:18:20;102202.44;;;28.61;61.86
69751;BME280;57335;52.288;6.056;2023-08-20T06:20:47;102203.84;;;29.06;60.67
69751;BME280;57335;52.288;6.056;2023-08-20T06:23:13;102203.88;;;29.47;59.40
69751;BME280;57335;52.288;6.056;2023-08-20T06:25:57;102197.38;;;29.98;57.11
69751;BME280;57335;52.288;6.056;2023-08-20T06:28:23;102194.66;;;30.35;55.62
69751;BME280;57335;52.288;6.056;2023-08-20T06:30:50;102196.03;;;30.77;54.62
69751;BME280;57335;52.288;6.056;2023-08-20T06:33:16;102191.09;;;31.11;53.21
69751;BME280;57335;52.288;6.056;2023-08-20T06:35:42;102188.69;;;31.49;51.98
69751;BME280;57335;52.288;6.056;2023-08-20T06:38:09;102190.78;;;31.87;50.60
69751;BME280;57335;52.288;6.056;2023-08-20T06:40:35;102195.44;;;32.22;49.69
69751;BME280;57335;52.288;6.056;2023-08-20T06:43:02;102189.31;;;32.51;48.52
69751;BME280;57335;52.288;6.056;2023-08-20T06:45:28;102203.94;;;32.85;48.31
69751;BME280;57335;52.288;6.056;2023-08-20T06:47:54;102190.25;;;33.11;47.34
69751;BME280;57335;52.288;6.056;2023-08-20T06:50:21;102188.53;;;33.36;46.43
69751;BME280;57335;52.288;6.056;2023-08-20T06:52:47;102203.00;;;33.70;46.17
69751;BME280;57335;52.288;6.056;2023-08-20T06:55:14;102211.31;;;33.94;45.19
69751;BME280;57335;52.288;6.056;2023-08-20T06:57:40;102214.50;;;34.17;44.45
69751;BME280;57335;52.288;6.056;2023-08-20T07:00:07;102209.81;;;34.39;43.85
69751;BME280;57335;52.288;6.056;2023-08-20T07:02:33;102203.72;;;34.54;43.11
69751;BME280;57335;52.288;6.056;2023-08-20T07:05:00;102200.03;;;34.71;43.22
69751;BME280;57335;52.288;6.056;2023-08-20T07:07:26;102211.16;;;34.91;43.19
69751;BME280;57335;52.288;6.056;2023-08-20T07:09:52;102210.38;;;35.03;42.22
69751;BME280;57335;52.288;6.056;2023-08-20T07:12:19;102210.84;;;35.17;42.18
69751;BME280;57335;52.288;6.056;2023-08-20T07:14:45;102209.91;;;35.38;41.69
69751;BME280;57335;52.288;6.056;2023-08-20T07:17:12;102210.22;;;35.61;41.14
69751;BME280;57335;52.288;6.056;2023-08-20T07:19:38;102217.28;;;35.90;40.78
69751;BME280;57335;52.288;6.056;2023-08-20T07:22:04;102210.06;;;36.10;39.90
69751;BME280;57335;52.288;6.056;2023-08-20T07:24:31;102210.22;;;36.29;39.55
69751;BME280;57335;52.288;6.056;2023-08-20T07:26:57;102207.69;;;36.37;39.23
69751;BME280;57335;52.288;6.056;2023-08-20T07:29:23;102207.16;;;36.47;38.81
69751;BME280;57335;52.288;6.056;2023-08-20T07:31:50;102208.59;;;36.57;38.18
69751;BME280;57335;52.288;6.056;2023-08-20T07:34:16;102196.59;;;36.61;38.27
69751;BME280;57335;52.288;6.056;2023-08-20T07:36:43;102202.34;;;36.72;38.39
69751;BME280;57335;52.288;6.056;2023-08-20T07:39:09;102206.28;;;36.74;37.18
69751;BME280;57335;52.288;6.056;2023-08-20T07:41:35;102208.25;;;36.74;37.94
69751;BME280;57335;52.288;6.056;2023-08-20T07:44:02;102211.16;;;36.81;37.60
69751;BME280;57335;52.288;6.056;2023-08-20T07:46:28;102202.41;;;36.91;37.26
69751;BME280;57335;52.288;6.056;2023-08-20T07:48:55;102207.13;;;37.10;37.16
69751;BME280;57335;52.288;6.056;2023-08-20T07:51:21;102217.19;;;37.22;36.50
69751;BME280;57335;52.288;6.056;2023-08-20T07:53:47;102214.13;;;37.24;36.66
69751;BME280;57335;52.288;6.056;2023-08-20T07:56:14;102217.03;;;37.31;36.68
69751;BME280;57335;52.288;6.056;2023-08-20T07:58:40;102209.38;;;37.40;36.10
69751;BME280;57335;52.288;6.056;2023-08-20T08:01:07;102210.94;;;37.57;36.02
69751;BME280;57335;52.288;6.056;2023-08-20T08:03:33;102205.03;;;37.75;35.91
69751;BME280;57335;52.288;6.056;2023-08-20T08:06:00;102219.06;;;37.92;35.23
69751;BME280;57335;52.288;6.056;2023-08-20T08:08:26;102212.97;;;37.99;34.89
69751;BME280;57335;52.288;6.056;2023-08-20T08:10:52;102212.97;;;37.99;34.68
69751;BME280;57335;52.288;6.056;2023-08-20T08:13:21;102214.59;;;38.04;34.49
69751;BME280;57335;52.288;6.056;2023-08-20T08:15:48;102213.91;;;38.07;34.52
69751;BME280;57335;52.288;6.056;2023-08-20T08:18:16;102204.53;;;38.08;34.18
69751;BME280;57335;52.288;6.056;2023-08-20T08:20:42;102211.97;;;38.07;34.49
69751;BME280;57335;52.288;6.056;2023-08-20T08:23:09;102217.81;;;38.06;34.89
69751;BME280;57335;52.288;6.056;2023-08-20T08:25:35;102220.19;;;38.07;34.27
69751;BME280;57335;52.288;6.056;2023-08-20T08:28:02;102227.09;;;38.01;34.00
69751;BME280;57335;52.288;6.056;2023-08-20T08:30:28;102227.78;;;37.98;34.50
69751;BME280;57335;52.288;6.056;2023-08-20T08:32:55;102228.56;;;37.99;33.92
69751;BME280;57335;52.288;6.056;2023-08-20T08:35:21;102232.56;;;38.01;33.82
69751;BME280;57335;52.288;6.056;2023-08-20T08:37:48;102235.06;;;37.90;33.50
69751;BME280;57335;52.288;6.056;2023-08-20T08:40:14;102224.19;;;37.75;33.41
69751;BME280;57335;52.288;6.056;2023-08-20T08:42:41;102234.72;;;37.72;33.53
69751;BME280;57335;52.288;6.056;2023-08-20T08:45:08;102244.50;;;37.74;33.63
69751;BME280;57335;52.288;6.056;2023-08-20T08:47:36;102235.94;;;37.75;34.01
69751;BME280;57335;52.288;6.056;2023-08-20T08:50:04;102226.56;;;37.76;34.10
69751;BME280;57335;52.288;6.056;2023-08-20T08:52:31;102240.84;;;37.85;33.73
69751;BME280;57335;52.288;6.056;2023-08-20T08:54:57;102242.56;;;37.94;33.42
69751;BME280;57335;52.288;6.056;2023-08-20T08:57:24;102245.44;;;38.01;33.98
69751;BME280;57335;52.288;6.056;2023-08-20T08:59:50;102241.47;;;37.98;33.20
69751;BME280;57335;52.288;6.056;2023-08-20T09:02:17;102248.91;;;37.98;33.61
69751;BME280;57335;52.288;6.056;2023-08-20T09:04:43;102245.00;;;37.99;33.26
69751;BME280;57335;52.288;6.056;2023-08-20T09:07:14;102240.50;;;38.06;32.93
69751;BME280;57335;52.288;6.056;2023-08-20T09:09:45;102233.94;;;37.91;32.42
69751;BME280;57335;52.288;6.056;2023-08-20T09:12:15;102246.91;;;37.75;32.87
69751;BME280;57335;52.288;6.056;2023-08-20T09:14:46;102234.50;;;37.62;34.35
69751;BME280;57335;52.288;6.056;2023-08-20T09:17:13;102233.59;;;37.58;34.20
69751;BME280;57335;52.288;6.056;2023-08-20T09:19:42;102229.72;;;37.59;34.26
69751;BME280;57335;52.288;6.056;2023-08-20T09:22:10;102232.53;;;37.62;33.12
69751;BME280;57335;52.288;6.056;2023-08-20T09:24:51;102233.09;;;37.52;32.65
69751;BME280;57335;52.288;6.056;2023-08-20T09:27:18;102238.47;;;37.29;32.67
69751;BME280;57335;52.288;6.056;2023-08-20T09:32:18;102232.63;;;37.15;32.94
69751;BME280;57335;52.288;6.056;2023-08-20T09:34:46;102219.56;;;37.08;33.77
69751;BME280;57335;52.288;6.056;2023-08-20T09:37:14;102227.09;;;36.95;33.59
69751;BME280;57335;52.288;6.056;2023-08-20T09:39:41;102221.75;;;36.83;33.91
69751;BME280;57335;52.288;6.056;2023-08-20T09:42:11;102226.13;;;36.71;34.51
69751;BME280;57335;52.288;6.056;2023-08-20T09:44:40;102233.94;;;36.57;33.94
69751;BME280;57335;52.288;6.056;2023-08-20T09:47:11;102226.34;;;36.34;33.73
69751;BME280;57335;52.288;6.056;2023-08-20T09:49:42;102221.69;;;36.07;34.35
69751;BME280;57335;52.288;6.056;2023-08-20T09:52:11;102221.88;;;35.86;34.95
69751;BME280;57335;52.288;6.056;2023-08-20T09:55:05;102229.31;;;35.73;33.13
69751;BME280;57335;52.288;6.056;2023-08-20T09:57:35;102223.41;;;35.59;34.77
69751;BME280;57335;52.288;6.056;2023-08-20T10:00:04;102234.09;;;35.51;32.70
69751;BME280;57335;52.288;6.056;2023-08-20T10:02:33;102232.97;;;35.40;34.88
69751;BME280;57335;52.288;6.056;2023-08-20T10:05:00;102224.59;;;35.21;34.14
69751;BME280;57335;52.288;6.056;2023-08-20T10:07:27;102227.28;;;34.96;34.92
69751;BME280;57335;52.288;6.056;2023-08-20T10:09:54;102234.19;;;34.69;35.16
69751;BME280;57335;52.288;6.056;2023-08-20T10:12:22;102241.91;;;34.46;36.54
69751;BME280;57335;52.288;6.056;2023-08-20T10:14:49;102246.34;;;34.38;37.55
69751;BME280;57335;52.288;6.056;2023-08-20T10:17:17;102239.25;;;34.25;38.46
69751;BME280;57335;52.288;6.056;2023-08-20T10:19:43;102249.06;;;34.17;37.00
69751;BME280;57335;52.288;6.056;2023-08-20T10:22:10;102237.66;;;34.03;37.84
69751;BME280;57335;52.288;6.056;2023-08-20T10:24:54;102239.78;;;33.97;37.14
69751;BME280;57335;52.288;6.056;2023-08-20T10:27:31;102238.53;;;33.94;39.19
69751;BME280;57335;52.288;6.056;2023-08-20T10:29:59;102242.50;;;33.97;38.43
69751;BME280;57335;52.288;6.056;2023-08-20T10:32:46;102240.97;;;33.87;37.76
69751;BME280;57335;52.288;6.056;2023-08-20T10:35:15;102245.47;;;33.83;39.23
69751;BME280;57335;52.288;6.056;2023-08-20T10:40:56;102243.84;;;33.61;39.52
69751;BME280;57335;52.288;6.056;2023-08-20T10:48:37;102233.59;;;33.37;39.08
69751;BME280;57335;52.288;6.056;2023-08-20T10:53:48;102243.81;;;33.40;39.00
69751;BME280;57335;52.288;6.056;2023-08-20T10:56:46;102231.66;;;33.37;37.87
69751;BME280;57335;52.288;6.056;2023-08-20T11:01:56;102243.81;;;33.40;38.55
69751;BME280;57335;52.288;6.056;2023-08-20T11:04:26;102236.97;;;33.34;38.22
69751;BME280;57335;52.288;6.056;2023-08-20T11:06:57;102245.13;;;33.34;38.59
69751;BME280;57335;52.288;6.056;2023-08-20T11:09:26;102241.59;;;33.33;37.95
69751;BME280;57335;52.288;6.056;2023-08-20T11:11:53;102249.09;;;33.36;38.57
69751;BME280;57335;52.288;6.056;2023-08-20T11:14:20;102248.31;;;33.36;38.57
69751;BME280;57335;52.288;6.056;2023-08-20T11:16:47;102234.91;;;33.31;38.63
69751;BME280;57335;52.288;6.056;2023-08-20T11:19:18;102240.19;;;33.27;39.20
69751;BME280;57335;52.288;6.056;2023-08-20T11:21:45;102233.56;;;33.16;38.47
69751;BME280;57335;52.288;6.056;2023-08-20T11:24:12;102232.72;;;33.15;39.13
69751;BME280;57335;52.288;6.056;2023-08-20T11:26:40;102235.81;;;33.14;39.23
69751;BME280;57335;52.288;6.056;2023-08-20T11:29:15;102225.09;;;33.09;39.97
69751;BME280;57335;52.288;6.056;2023-08-20T11:31:41;102239.94;;;33.11;38.67
69751;BME280;57335;52.288;6.056;2023-08-20T11:34:08;102232.72;;;33.15;39.45
69751;BME280;57335;52.288;6.056;2023-08-20T11:36:34;102229.69;;;33.17;38.30
69751;BME280;57335;52.288;6.056;2023-08-20T11:39:01;102224.66;;;32.98;37.67
69751;BME280;57335;52.288;6.056;2023-08-20T11:41:28;102229.72;;;32.44;37.03
69751;BME280;57335;52.288;6.056;2023-08-20T11:43:54;102229.44;;;32.28;38.11
69751;BME280;57335;52.288;6.056;2023-08-20T11:46:22;102230.38;;;32.23;38.95
69751;BME280;57335;52.288;6.056;2023-08-20T11:49:09;102230.72;;;32.04;38.88
69751;BME280;57335;52.288;6.056;2023-08-20T11:51:37;102226.47;;;31.54;39.43
69751;BME280;57335;52.288;6.056;2023-08-20T11:54:14;102231.69;;;31.02;40.50
69751;BME280;57335;52.288;6.056;2023-08-20T11:59:11;102217.44;;;30.20;41.70
69751;BME280;57335;52.288;6.056;2023-08-20T12:01:38;102218.16;;;30.12;43.26
69751;BME280;57335;52.288;6.056;2023-08-20T12:04:06;102218.41;;;30.24;43.35
69751;BME280;57335;52.288;6.056;2023-08-20T12:06:37;102213.03;;;30.47;42.62
69751;BME280;57335;52.288;6.056;2023-08-20T12:09:22;102216.09;;;30.76;42.49
69751;BME280;57335;52.288;6.056;2023-08-20T12:11:51;102207.44;;;30.66;38.82
69751;BME280;57335;52.288;6.056;2023-08-20T12:14:18;102214.88;;;30.60;41.20
69751;BME280;57335;52.288;6.056;2023-08-20T12:16:45;102205.06;;;30.41;41.36
69751;BME280;57335;52.288;6.056;2023-08-20T12:19:12;102217.88;;;30.58;41.86
69751;BME280;57335;52.288;6.056;2023-08-20T12:21:40;102208.94;;;30.80;41.86
69751;BME280;57335;52.288;6.056;2023-08-20T12:24:08;102206.06;;;31.08;41.84
69751;BME280;57335;52.288;6.056;2023-08-20T12:26:35;102206.94;;;31.35;40.77
69751;BME280;57335;52.288;6.056;2023-08-20T12:29:02;102207.97;;;31.56;40.95
69751;BME280;57335;52.288;6.056;2023-08-20T12:31:28;102203.69;;;31.64;38.33
69751;BME280;57335;52.288;6.056;2023-08-20T12:33:55;102206.53;;;31.59;38.85
69751;BME280;57335;52.288;6.056;2023-08-20T12:36:21;102202.81;;;31.37;37.79
69751;BME280;57335;52.288;6.056;2023-08-20T12:38:48;102205.28;;;30.54;36.69
69751;BME280;57335;52.288;6.056;2023-08-20T12:41:14;102201.69;;;29.99;39.78
69751;BME280;57335;52.288;6.056;2023-08-20T12:43:41;102204.16;;;29.73;42.08
69751;BME280;57335;52.288;6.056;2023-08-20T12:46:07;102197.31;;;29.07;40.23
69751;BME280;57335;52.288;6.056;2023-08-20T12:48:33;102201.25;;;28.68;41.68
69751;BME280;57335;52.288;6.056;2023-08-20T12:51:00;102212.66;;;28.78;43.46
69751;BME280;57335;52.288;6.056;2023-08-20T12:53:26;102211.13;;;29.05;44.24
69751;BME280;57335;52.288;6.056;2023-08-20T12:55:53;102214.88;;;29.37;42.96
69751;BME280;57335;52.288;6.056;2023-08-20T12:58:19;102209.06;;;29.57;41.14
69751;BME280;57335;52.288;6.056;2023-08-20T13:00:46;102213.13;;;29.69;41.83
69751;BME280;57335;52.288;6.056;2023-08-20T13:03:13;102221.22;;;29.96;42.99
69751;BME280;57335;52.288;6.056;2023-08-20T13:05:39;102211.97;;;30.11;40.90
69751;BME280;57335;52.288;6.056;2023-08-20T13:08:06;102227.34;;;29.60;41.79
69751;BME280;57335;52.288;6.056;2023-08-20T13:10:33;102228.56;;;29.13;41.50
69751;BME280;57335;52.288;6.056;2023-08-20T13:13:01;102222.97;;;28.76;42.87
69751;BME280;57335;52.288;6.056;2023-08-20T13:15:28;102225.50;;;28.54;44.31